sensor_id;sensor_type;location;lat;lon;timestamp;pressure;altitude;pressure_sealevel;temperature;humidity
75298;BME280;63896;45.990;18.688;2023-02-25T00:00:18;99421.06;;;8.33;74.24
75298;BME280;63896;45.990;18.688;2023-02-25T00:03:21;99427.31;;;8.50;73.86
75298;BME280;63896;45.990;18.688;2023-02-25T00:06:25;99418.72;;;8.55;73.25
75298;BME280;63896;45.990;18.688;2023-02-25T00:09:29;99421.50;;;8.60;73.18
75298;BME280;63896;45.990;18.688;2023-02-25T00:12:32;99416.94;;;8.67;73.21
75298;BME280;63896;45.990;18.688;2023-02-25T00:15:35;99407.06;;;8.74;73.48
75298;BME280;63896;45.990;18.688;2023-02-25T00:18:41;99410.75;;;8.85;72.90
75298;BME280;63896;45.990;18.688;2023-02-25T00:21:48;99396.06;;;8.89;72.74
75298;BME280;63896;45.990;18.688;2023-02-25T00:24:52;99388.91;;;8.78;73.03
75298;BME280;63896;45.990;18.688;2023-02-25T00:27:56;99397.56;;;8.55;74.27
75298;BME280;63896;45.990;18.688;2023-02-25T00:30:58;99382.38;;;8.50;74.53
75298;BME280;63896;45.990;18.688;2023-02-25T00:34:02;99381.63;;;8.73;73.97
75298;BME280;63896;45.990;18.688;2023-02-25T00:37:06;99367.09;;;8.94;73.29
75298;BME280;63896;45.990;18.688;2023-02-25T00:40:10;99364.00;;;9.08;73.54
75298;BME280;63896;45.990;18.688;2023-02-25T00:43:16;99358.13;;;9.18;73.44
75298;BME280;63896;45.990;18.688;2023-02-25T00:46:19;99361.47;;;9.25;73.10
75298;BME280;63896;45.990;18.688;2023-02-25T00:49:23;99357.88;;;9.20;73.47
75298;BME280;63896;45.990;18.688;2023-02-25T00:52:35;99376.88;;;9.05;74.08
75298;BME280;63896;45.990;18.688;2023-02-25T00:55:39;99362.97;;;9.21;73.87
75298;BME280;63896;45.990;18.688;2023-02-25T00:58:43;99354.56;;;9.13;75.02
75298;BME280;63896;45.990;18.688;2023-02-25T01:01:47;99337.53;;;9.08;77.84
75298;BME280;63896;45.990;18.688;2023-02-25T01:04:50;99316.13;;;9.10;79.37
75298;BME280;63896;45.990;18.688;2023-02-25T01:07:53;99314.88;;;9.13;81.16
75298;BME280;63896;45.990;18.688;2023-02-25T01:10:57;99319.44;;;9.40;81.34
75298;BME280;63896;45.990;18.688;2023-02-25T01:14:06;99308.34;;;9.67;81.29
75298;BME280;63896;45.990;18.688;2023-02-25T01:17:10;99324.63;;;9.87;80.83
75298;BME280;63896;45.990;18.688;2023-02-25T01:20:17;99310.34;;;9.88;81.63
75298;BME280;63896;45.990;18.688;2023-02-25T01:23:21;99301.69;;;9.92;82.05
75298;BME280;63896;45.990;18.688;2023-02-25T01:26:26;99299.94;;;9.98;82.75
75298;BME280;63896;45.990;18.688;2023-02-25T01:29:36;99290.53;;;9.90;83.47
75298;BME280;63896;45.990;18.688;2023-02-25T01:32:40;99283.13;;;9.92;84.31
75298;BME280;63896;45.990;18.688;2023-02-25T01:35:43;99262.69;;;9.88;84.36
75298;BME280;63896;45.990;18.688;2023-02-25T01:38:47;99260.88;;;9.77;84.86
75298;BME280;63896;45.990;18.688;2023-02-25T01:41:51;99255.94;;;9.69;85.00
75298;BME280;63896;45.990;18.688;2023-02-25T01:48:24;99240.34;;;9.55;85.25
75298;BME280;63896;45.990;18.688;2023-02-25T01:51:30;99234.13;;;9.50;86.12
75298;BME280;63896;45.990;18.688;2023-02-25T01:54:35;99239.78;;;9.53;86.10
75298;BME280;63896;45.990;18.688;2023-02-25T01:57:38;99235.38;;;9.59;85.50
75298;BME280;63896;45.990;18.688;2023-02-25T02:00:41;99220.38;;;9.65;84.87
75298;BME280;63896;45.990;18.688;2023-02-25T02:03:45;99221.03;;;9.72;84.83
75298;BME280;63896;45.990;18.688;2023-02-25T02:06:49;99211.34;;;9.77;84.59
75298;BME280;63896;45.990;18.688;2023-02-25T02:09:52;99198.81;;;9.73;84.25
75298;BME280;63896;45.990;18.688;2023-02-25T02:12:58;99195.53;;;9.82;84.25
75298;BME280;63896;45.990;18.688;2023-02-25T02:16:44;99185.38;;;9.91;84.10
75298;BME280;63896;45.990;18.688;2023-02-25T02:23:15;99171.78;;;10.04;83.96
75298;BME280;63896;45.990;18.688;2023-02-25T02:33:39;99146.16;;;9.93;84.81
75298;BME280;63896;45.990;18.688;2023-02-25T02:36:56;99131.34;;;9.92;84.61
75298;BME280;63896;45.990;18.688;2023-02-25T02:40:15;99119.94;;;9.91;84.36
75298;BME280;63896;45.990;18.688;2023-02-25T02:43:36;99107.88;;;10.00;83.86
75298;BME280;63896;45.990;18.688;2023-02-25T02:49:53;99107.56;;;9.80;84.35
75298;BME280;63896;45.990;18.688;2023-02-25T02:53:02;99103.63;;;9.66;85.21
75298;BME280;63896;45.990;18.688;2023-02-25T02:56:08;99098.78;;;9.46;85.89
75298;BME280;63896;45.990;18.688;2023-02-25T02:59:20;99086.16;;;9.37;85.83
75298;BME280;63896;45.990;18.688;2023-02-25T03:02:29;99083.81;;;9.24;85.85
75298;BME280;63896;45.990;18.688;2023-02-25T03:05:34;99073.91;;;9.02;86.94
75298;BME280;63896;45.990;18.688;2023-02-25T03:08:42;99086.84;;;8.87;87.25
75298;BME280;63896;45.990;18.688;2023-02-25T03:11:47;99086.94;;;8.81;86.84
75298;BME280;63896;45.990;18.688;2023-02-25T03:14:50;99078.16;;;8.64;86.91
75298;BME280;63896;45.990;18.688;2023-02-25T03:17:56;99072.38;;;8.78;84.06
75298;BME280;63896;45.990;18.688;2023-02-25T03:21:03;99079.63;;;8.71;83.64
75298;BME280;63896;45.990;18.688;2023-02-25T03:24:16;99064.66;;;8.77;82.34
75298;BME280;63896;45.990;18.688;2023-02-25T03:27:39;99068.94;;;8.66;82.20
75298;BME280;63896;45.990;18.688;2023-02-25T03:30:47;99065.63;;;8.59;81.61
75298;BME280;63896;45.990;18.688;2023-02-25T03:34:12;99066.47;;;8.48;81.74
75298;BME280;63896;45.990;18.688;2023-02-25T03:37:21;99067.97;;;8.44;81.69
75298;BME280;63896;45.990;18.688;2023-02-25T03:40:25;99075.91;;;8.32;81.56
75298;BME280;63896;45.990;18.688;2023-02-25T03:43:36;99069.31;;;8.23;81.39
75298;BME280;63896;45.990;18.688;2023-02-25T03:46:42;99075.41;;;8.24;81.01
75298;BME280;63896;45.990;18.688;2023-02-25T03:50:17;99074.06;;;8.33;80.23
75298;BME280;63896;45.990;18.688;2023-02-25T03:53:29;99071.63;;;8.43;79.42
75298;BME280;63896;45.990;18.688;2023-02-25T03:56:47;99071.63;;;8.43;79.07
75298;BME280;63896;45.990;18.688;2023-02-25T03:59:51;99072.09;;;8.40;79.38
75298;BME280;63896;45.990;18.688;2023-02-25T04:02:58;99062.69;;;8.32;79.17
75298;BME280;63896;45.990;18.688;2023-02-25T04:06:01;99066.16;;;8.33;79.59
75298;BME280;63896;45.990;18.688;2023-02-25T04:09:04;99076.72;;;8.33;79.25
75298;BME280;63896;45.990;18.688;2023-02-25T04:12:08;99075.31;;;8.30;78.89
75298;BME280;63896;45.990;18.688;2023-02-25T04:15:12;99073.75;;;8.29;78.83
75298;BME280;63896;45.990;18.688;2023-02-25T04:18:18;99077.16;;;8.18;79.39
75298;BME280;63896;45.990;18.688;2023-02-25T04:21:30;99082.66;;;8.17;79.28
75298;BME280;63896;45.990;18.688;2023-02-25T04:24:33;99070.59;;;8.09;79.58
75298;BME280;63896;45.990;18.688;2023-02-25T04:27:36;99077.72;;;7.97;80.35
75298;BME280;63896;45.990;18.688;2023-02-25T04:30:39;99064.41;;;7.92;80.36
75298;BME280;63896;45.990;18.688;2023-02-25T04:33:42;99073.22;;;7.74;81.24
75298;BME280;63896;45.990;18.688;2023-02-25T04:36:51;99075.41;;;7.65;81.77
75298;BME280;63896;45.990;18.688;2023-02-25T04:39:54;99076.00;;;7.68;81.63
75298;BME280;63896;45.990;18.688;2023-02-25T04:42:57;99070.91;;;7.66;80.98
75298;BME280;63896;45.990;18.688;2023-02-25T04:46:00;99072.88;;;7.71;81.16
75298;BME280;63896;45.990;18.688;2023-02-25T04:49:04;99079.09;;;7.76;81.17
75298;BME280;63896;45.990;18.688;2023-02-25T04:52:07;99068.53;;;7.88;80.53
75298;BME280;63896;45.990;18.688;2023-02-25T04:55:10;99072.44;;;7.97;80.32
75298;BME280;63896;45.990;18.688;2023-02-25T04:58:13;99065.78;;;8.06;79.90
75298;BME280;63896;45.990;18.688;2023-02-25T05:01:16;99072.22;;;8.22;79.41
75298;BME280;63896;45.990;18.688;2023-02-25T05:04:19;99073.06;;;8.34;79.08
75298;BME280;63896;45.990;18.688;2023-02-25T05:07:22;99065.53;;;8.42;79.04
75298;BME280;63896;45.990;18.688;2023-02-25T05:10:26;99063.16;;;8.41;78.86
75298;BME280;63896;45.990;18.688;2023-02-25T05:13:29;99066.69;;;8.46;78.83
75298;BME280;63896;45.990;18.688;2023-02-25T05:16:32;99063.34;;;8.51;79.09
75298;BME280;63896;45.990;18.688;2023-02-25T05:19:35;99059.09;;;8.50;78.98
75298;BME280;63896;45.990;18.688;2023-02-25T05:22:39;99053.38;;;8.53;79.79
75298;BME280;63896;45.990;18.688;2023-02-25T05:25:42;99058.75;;;8.46;80.18
75298;BME280;63896;45.990;18.688;2023-02-25T05:28:49;99054.06;;;8.48;80.11
75298;BME280;63896;45.990;18.688;2023-02-25T05:31:52;99061.16;;;8.59;79.83
75298;BME280;63896;45.990;18.688;2023-02-25T05:34:56;99060.13;;;8.60;79.49
75298;BME280;63896;45.990;18.688;2023-02-25T05:38:00;99054.09;;;8.77;78.29
75298;BME280;63896;45.990;18.688;2023-02-25T05:41:04;99058.59;;;8.76;78.67
75298;BME280;63896;45.990;18.688;2023-02-25T05:44:10;99051.69;;;8.75;78.85
75298;BME280;63896;45.990;18.688;2023-02-25T05:47:13;99050.75;;;8.81;78.36
75298;BME280;63896;45.990;18.688;2023-02-25T05:50:16;99063.16;;;8.81;78.11
75298;BME280;63896;45.990;18.688;2023-02-25T05:53:20;99067.41;;;8.82;78.11
75298;BME280;63896;45.990;18.688;2023-02-25T05:56:24;99069.84;;;8.83;77.85
75298;BME280;63896;45.990;18.688;2023-02-25T05:59:27;99066.94;;;8.85;nan
75298;BME280;63896;45.990;18.688;2023-02-25T06:02:32;99078.97;;;8.92;77.65
75298;BME280;63896;45.990;18.688;2023-02-25T06:05:39;99071.63;;;8.94;77.65
75298;BME280;63896;45.990;18.688;2023-02-25T06:08:43;99073.91;;;9.02;77.17
75298;BME280;63896;45.990;18.688;2023-02-25T06:11:47;99076.41;;;9.09;76.88
75298;BME280;63896;45.990;18.688;2023-02-25T06:14:50;99072.00;;;9.15;76.60
75298;BME280;63896;45.990;18.688;2023-02-25T06:17:53;99084.78;;;9.18;76.73
75298;BME280;63896;45.990;18.688;2023-02-25T06:21:02;99085.41;;;9.25;76.44
75298;BME280;63896;45.990;18.688;2023-02-25T06:24:07;99090.38;;;9.49;75.13
75298;BME280;63896;45.990;18.688;2023-02-25T06:27:10;99085.22;;;9.43;75.42
75298;BME280;63896;45.990;18.688;2023-02-25T06:30:13;99081.63;;;9.49;75.81
75298;BME280;63896;45.990;18.688;2023-02-25T06:33:16;99085.31;;;9.48;76.12
75298;BME280;63896;45.990;18.688;2023-02-25T06:36:19;99087.34;;;9.57;75.98
75298;BME280;63896;45.990;18.688;2023-02-25T06:39:23;99082.59;;;9.60;76.13
75298;BME280;63896;45.990;18.688;2023-02-25T06:42:26;99100.75;;;9.39;77.07
75298;BME280;63896;45.990;18.688;2023-02-25T06:45:29;99102.94;;;9.42;78.16
75298;BME280;63896;45.990;18.688;2023-02-25T06:48:32;99113.22;;;9.55;77.80
75298;BME280;63896;45.990;18.688;2023-02-25T06:51:35;99110.50;;;9.50;79.14
75298;BME280;63896;45.990;18.688;2023-02-25T06:54:38;99106.59;;;9.53;81.31
75298;BME280;63896;45.990;18.688;2023-02-25T06:57:41;99099.34;;;9.48;81.84
75298;BME280;63896;45.990;18.688;2023-02-25T07:00:44;99084.03;;;9.67;81.52
75298;BME280;63896;45.990;18.688;2023-02-25T07:03:47;99101.63;;;9.90;80.23
75298;BME280;63896;45.990;18.688;2023-02-25T07:06:50;99104.44;;;9.83;80.83
75298;BME280;63896;45.990;18.688;2023-02-25T07:09:53;99127.31;;;9.89;81.30
75298;BME280;63896;45.990;18.688;2023-02-25T07:12:56;99124.84;;;9.99;81.70
75298;BME280;63896;45.990;18.688;2023-02-25T07:15:59;99134.97;;;10.19;80.97
75298;BME280;63896;45.990;18.688;2023-02-25T07:19:02;99155.44;;;10.24;81.53
75298;BME280;63896;45.990;18.688;2023-02-25T07:22:05;99175.00;;;10.06;82.85
75298;BME280;63896;45.990;18.688;2023-02-25T07:25:09;99163.13;;;9.92;85.35
75298;BME280;63896;45.990;18.688;2023-02-25T07:28:13;99187.91;;;9.86;84.74
75298;BME280;63896;45.990;18.688;2023-02-25T07:31:18;99188.81;;;9.91;86.07
75298;BME280;63896;45.990;18.688;2023-02-25T07:34:24;99192.59;;;9.95;86.33
75298;BME280;63896;45.990;18.688;2023-02-25T07:37:27;99205.59;;;9.97;87.72
75298;BME280;63896;45.990;18.688;2023-02-25T07:40:30;99186.72;;;9.93;88.28
75298;BME280;63896;45.990;18.688;2023-02-25T07:43:33;99178.78;;;9.93;89.36
75298;BME280;63896;45.990;18.688;2023-02-25T07:46:36;99173.97;;;9.90;89.41
75298;BME280;63896;45.990;18.688;2023-02-25T07:49:39;99171.41;;;9.95;86.80
75298;BME280;63896;45.990;18.688;2023-02-25T07:52:42;99171.25;;;10.02;86.85
75298;BME280;63896;45.990;18.688;2023-02-25T07:55:45;99145.25;;;10.16;86.79
75298;BME280;63896;45.990;18.688;2023-02-25T07:58:48;99160.91;;;10.34;85.97
75298;BME280;63896;45.990;18.688;2023-02-25T08:01:51;99199.38;;;10.53;85.37
75298;BME280;63896;45.990;18.688;2023-02-25T08:04:54;99203.66;;;9.92;80.05
75298;BME280;63896;45.990;18.688;2023-02-25T08:07:57;99222.25;;;9.13;81.45
75298;BME280;63896;45.990;18.688;2023-02-25T08:11:05;99216.66;;;8.63;82.58
75298;BME280;63896;45.990;18.688;2023-02-25T08:14:08;99254.84;;;8.13;81.41
75298;BME280;63896;45.990;18.688;2023-02-25T08:17:11;99272.13;;;7.68;84.04
75298;BME280;63896;45.990;18.688;2023-02-25T08:20:15;99274.22;;;7.48;84.60
75298;BME280;63896;45.990;18.688;2023-02-25T08:23:18;99264.97;;;7.21;84.81
75298;BME280;63896;45.990;18.688;2023-02-25T08:26:22;99290.66;;;7.07;87.03
75298;BME280;63896;45.990;18.688;2023-02-25T08:29:26;99304.16;;;6.99;86.90
75298;BME280;63896;45.990;18.688;2023-02-25T08:32:28;99306.47;;;6.89;88.62
75298;BME280;63896;45.990;18.688;2023-02-25T08:35:32;99301.25;;;6.82;88.11
75298;BME280;63896;45.990;18.688;2023-02-25T08:38:36;99291.66;;;6.88;87.85
75298;BME280;63896;45.990;18.688;2023-02-25T08:41:39;99303.25;;;6.87;88.49
75298;BME280;63896;45.990;18.688;2023-02-25T08:44:43;99301.00;;;6.90;88.67
75298;BME280;63896;45.990;18.688;2023-02-25T08:47:46;99312.19;;;6.86;87.14
75298;BME280;63896;45.990;18.688;2023-02-25T08:50:50;99312.19;;;6.86;86.99
75298;BME280;63896;45.990;18.688;2023-02-25T08:53:53;99305.34;;;6.53;87.92
75298;BME280;63896;45.990;18.688;2023-02-25T08:56:55;99312.41;;;6.59;88.47
75298;BME280;63896;45.990;18.688;2023-02-25T08:59:58;99300.44;;;6.57;87.65
75298;BME280;63896;45.990;18.688;2023-02-25T09:03:01;99325.16;;;6.62;88.18
75298;BME280;63896;45.990;18.688;2023-02-25T09:06:04;99348.91;;;6.56;88.68
75298;BME280;63896;45.990;18.688;2023-02-25T09:09:07;99380.56;;;6.49;89.22
75298;BME280;63896;45.990;18.688;2023-02-25T09:12:11;99357.34;;;6.40;89.93
75298;BME280;63896;45.990;18.688;2023-02-25T09:15:14;99328.59;;;6.32;91.02
75298;BME280;63896;45.990;18.688;2023-02-25T09:18:17;99348.25;;;6.36;90.85
75298;BME280;63896;45.990;18.688;2023-02-25T09:21:19;99362.25;;;6.30;91.77
75298;BME280;63896;45.990;18.688;2023-02-25T09:24:23;99362.72;;;6.20;92.40
75298;BME280;63896;45.990;18.688;2023-02-25T09:27:26;99383.59;;;6.15;90.69
75298;BME280;63896;45.990;18.688;2023-02-25T09:30:29;99468.28;;;6.12;91.45
75298;BME280;63896;45.990;18.688;2023-02-25T09:33:32;99506.41;;;5.96;89.33
75298;BME280;63896;45.990;18.688;2023-02-25T09:36:36;99460.66;;;5.91;89.69
75298;BME280;63896;45.990;18.688;2023-02-25T09:39:39;99461.88;;;5.82;89.56
75298;BME280;63896;45.990;18.688;2023-02-25T09:46:15;99453.19;;;5.61;88.22
75298;BME280;63896;45.990;18.688;2023-02-25T09:52:52;99452.78;;;5.71;87.14
75298;BME280;63896;45.990;18.688;2023-02-25T09:55:58;99453.44;;;5.40;87.22
75298;BME280;63896;45.990;18.688;2023-02-25T09:59:10;99441.69;;;5.29;86.01
75298;BME280;63896;45.990;18.688;2023-02-25T10:09:12;99474.06;;;5.30;85.63
75298;BME280;63896;45.990;18.688;2023-02-25T10:12:24;99480.13;;;5.63;85.90
75298;BME280;63896;45.990;18.688;2023-02-25T10:18:51;99496.72;;;5.90;83.35
75298;BME280;63896;45.990;18.688;2023-02-25T10:22:21;99502.13;;;5.75;83.26
75298;BME280;63896;45.990;18.688;2023-02-25T10:25:31;99491.03;;;5.54;84.17
75298;BME280;63896;45.990;18.688;2023-02-25T10:28:38;99485.34;;;5.76;85.23
75298;BME280;63896;45.990;18.688;2023-02-25T10:31:42;99487.38;;;5.74;86.91
75298;BME280;63896;45.990;18.688;2023-02-25T10:34:50;99485.56;;;5.62;85.59
75298;BME280;63896;45.990;18.688;2023-02-25T10:37:54;99492.47;;;5.63;85.90
75298;BME280;63896;45.990;18.688;2023-02-25T10:40:57;99497.31;;;5.59;86.59
75298;BME280;63896;45.990;18.688;2023-02-25T10:44:00;99490.03;;;5.55;84.54
75298;BME280;63896;45.990;18.688;2023-02-25T10:47:05;99496.09;;;5.62;86.04
75298;BME280;63896;45.990;18.688;2023-02-25T10:53:14;99486.19;;;5.70;85.50
75298;BME280;63896;45.990;18.688;2023-02-25T10:56:22;99492.06;;;5.46;84.95
75298;BME280;63896;45.990;18.688;2023-02-25T10:59:27;99488.19;;;5.82;86.84
75298;BME280;63896;45.990;18.688;2023-02-25T11:02:41;99478.69;;;5.61;84.83
75298;BME280;63896;45.990;18.688;2023-02-25T11:05:45;99468.56;;;5.58;85.81
75298;BME280;63896;45.990;18.688;2023-02-25T11:08:48;99462.50;;;5.38;87.11
75298;BME280;63896;45.990;18.688;2023-02-25T11:12:00;99451.38;;;5.49;87.75
75298;BME280;63896;45.990;18.688;2023-02-25T11:18:51;99440.00;;;5.81;83.64
75298;BME280;63896;45.990;18.688;2023-02-25T11:21:55;99441.44;;;5.57;86.11
75298;BME280;63896;45.990;18.688;2023-02-25T11:25:00;99428.88;;;5.79;85.46
75298;BME280;63896;45.990;18.688;2023-02-25T11:28:06;99413.31;;;5.71;83.72
75298;BME280;63896;45.990;18.688;2023-02-25T11:31:22;99421.03;;;5.59;83.31
75298;BME280;63896;45.990;18.688;2023-02-25T11:34:28;99430.50;;;5.87;83.57
75298;BME280;63896;45.990;18.688;2023-02-25T11:37:38;99420.78;;;5.74;81.72
75298;BME280;63896;45.990;18.688;2023-02-25T11:40:47;99417.31;;;5.93;80.66
75298;BME280;63896;45.990;18.688;2023-02-25T11:43:50;99426.78;;;6.52;82.78
75298;BME280;63896;45.990;18.688;2023-02-25T11:46:59;99426.94;;;7.38;79.74
75298;BME280;63896;45.990;18.688;2023-02-25T11:56:41;99400.53;;;7.62;78.68
75298;BME280;63896;45.990;18.688;2023-02-25T12:07:04;99440.00;;;7.33;76.25
75298;BME280;63896;45.990;18.688;2023-02-25T12:13:29;99464.72;;;6.82;77.48
75298;BME280;63896;45.990;18.688;2023-02-25T12:16:50;99479.66;;;6.95;79.07
75298;BME280;63896;45.990;18.688;2023-02-25T12:30:53;99459.44;;;6.44;82.52
75298;BME280;63896;45.990;18.688;2023-02-25T12:34:33;99458.41;;;6.45;80.22
75298;BME280;63896;45.990;18.688;2023-02-25T12:55:18;99444.91;;;5.51;84.39
75298;BME280;63896;45.990;18.688;2023-02-25T12:58:42;99440.25;;;5.53;83.18
75298;BME280;63896;45.990;18.688;2023-02-25T13:12:21;99476.03;;;5.81;81.90
75298;BME280;63896;45.990;18.688;2023-02-25T13:15:54;99472.44;;;5.29;80.41
75298;BME280;63896;45.990;18.688;2023-02-25T13:51:01;99439.28;;;5.28;84.46
75298;BME280;63896;45.990;18.688;2023-02-25T13:54:52;99433.19;;;5.14;83.03
75298;BME280;63896;45.990;18.688;2023-02-25T13:58:27;99439.88;;;5.23;84.23
75298;BME280;63896;45.990;18.688;2023-02-25T14:01:43;99428.53;;;5.03;84.34
75298;BME280;63896;45.990;18.688;2023-02-25T14:25:07;99497.69;;;5.10;85.57
75298;BME280;63896;45.990;18.688;2023-02-25T14:45:27;99479.50;;;5.02;86.02
75298;BME280;63896;45.990;18.688;2023-02-25T14:48:42;99496.47;;;4.93;86.54
75298;BME280;63896;45.990;18.688;2023-02-25T15:22:26;99470.69;;;4.43;91.02
75298;BME280;63896;45.990;18.688;2023-02-25T15:25:43;99477.75;;;4.49;92.26
75298;BME280;63896;45.990;18.688;2023-02-25T15:28:49;99492.44;;;4.37;92.35
75298;BME280;63896;45.990;18.688;2023-02-25T15:32:20;99501.78;;;4.46;91.49
75298;BME280;63896;45.990;18.688;2023-02-25T15:38:45;99485.38;;;4.37;90.90
75298;BME280;63896;45.990;18.688;2023-02-25T15:41:58;99499.16;;;4.39;90.96
75298;BME280;63896;45.990;18.688;2023-02-25T15:48:32;99490.34;;;4.12;94.11
75298;BME280;63896;45.990;18.688;2023-02-25T15:55:17;99503.88;;;4.16;94.70
75298;BME280;63896;45.990;18.688;2023-02-25T16:01:40;99479.06;;;4.25;94.22
75298;BME280;63896;45.990;18.688;2023-02-25T16:04:48;99505.72;;;4.22;94.62
75298;BME280;63896;45.990;18.688;2023-02-25T16:08:04;99504.31;;;4.19;94.45
75298;BME280;63896;45.990;18.688;2023-02-25T16:14:32;99493.97;;;4.11;93.56
75298;BME280;63896;45.990;18.688;2023-02-25T16:17:36;99481.94;;;3.89;93.90
75298;BME280;63896;45.990;18.688;2023-02-25T16:20:48;99505.00;;;4.00;93.98
75298;BME280;63896;45.990;18.688;2023-02-25T16:23:53;99502.94;;;3.89;92.50
75298;BME280;63896;45.990;18.688;2023-02-25T16:27:04;99474.97;;;3.75;93.01
75298;BME280;63896;45.990;18.688;2023-02-25T16:30:15;99486.06;;;3.70;92.97
75298;BME280;63896;45.990;18.688;2023-02-25T16:36:46;99518.03;;;3.59;95.69
75298;BME280;63896;45.990;18.688;2023-02-25T16:39:51;99514.53;;;3.46;96.21
75298;BME280;63896;45.990;18.688;2023-02-25T16:42:56;99536.88;;;3.63;95.35
75298;BME280;63896;45.990;18.688;2023-02-25T16:46:01;99556.81;;;3.64;95.62
75298;BME280;63896;45.990;18.688;2023-02-25T16:49:15;99549.72;;;3.58;95.81
75298;BME280;63896;45.990;18.688;2023-02-25T16:52:26;99558.31;;;3.73;95.77
75298;BME280;63896;45.990;18.688;2023-02-25T16:55:38;99561.84;;;3.59;96.37
75298;BME280;63896;45.990;18.688;2023-02-25T16:58:42;99568.13;;;3.64;96.32
75298;BME280;63896;45.990;18.688;2023-02-25T17:04:59;99586.69;;;3.63;97.14
75298;BME280;63896;45.990;18.688;2023-02-25T17:08:05;99598.78;;;3.64;96.76
75298;BME280;63896;45.990;18.688;2023-02-25T17:11:17;99603.84;;;3.65;97.39
75298;BME280;63896;45.990;18.688;2023-02-25T17:14:21;99608.09;;;3.66;96.76
75298;BME280;63896;45.990;18.688;2023-02-25T17:17:37;99615.78;;;3.68;96.46
75298;BME280;63896;45.990;18.688;2023-02-25T17:20:41;99604.25;;;3.62;96.05
75298;BME280;63896;45.990;18.688;2023-02-25T17:23:45;99612.66;;;3.58;96.21
75298;BME280;63896;45.990;18.688;2023-02-25T17:26:49;99612.34;;;3.46;96.97
75298;BME280;63896;45.990;18.688;2023-02-25T17:29:53;99609.84;;;3.59;96.43
75298;BME280;63896;45.990;18.688;2023-02-25T17:32:57;99601.97;;;3.59;94.72
75298;BME280;63896;45.990;18.688;2023-02-25T17:36:07;99610.41;;;3.55;94.68
75298;BME280;63896;45.990;18.688;2023-02-25T17:39:17;99615.34;;;3.43;95.57
75298;BME280;63896;45.990;18.688;2023-02-25T17:42:36;99619.47;;;3.52;96.21
75298;BME280;63896;45.990;18.688;2023-02-25T17:46:12;99637.25;;;3.57;95.85
75298;BME280;63896;45.990;18.688;2023-02-25T17:52:23;99636.00;;;3.53;96.37
75298;BME280;63896;45.990;18.688;2023-02-25T17:55:32;99635.94;;;3.46;95.86
75298;BME280;63896;45.990;18.688;2023-02-25T17:58:36;99624.47;;;3.47;95.13
75298;BME280;63896;45.990;18.688;2023-02-25T18:01:51;99628.34;;;3.51;94.17
75298;BME280;63896;45.990;18.688;2023-02-25T18:05:14;99628.09;;;3.46;94.18
75298;BME280;63896;45.990;18.688;2023-02-25T18:08:51;99621.25;;;3.52;93.77
75298;BME280;63896;45.990;18.688;2023-02-25T18:11:56;99620.31;;;3.59;94.36
75298;BME280;63896;45.990;18.688;2023-02-25T18:15:08;99607.16;;;3.53;95.03
75298;BME280;63896;45.990;18.688;2023-02-25T18:18:20;99598.91;;;3.56;94.12
75298;BME280;63896;45.990;18.688;2023-02-25T18:21:24;99585.75;;;3.49;94.74
75298;BME280;63896;45.990;18.688;2023-02-25T18:24:32;99586.44;;;3.36;94.95
75298;BME280;63896;45.990;18.688;2023-02-25T18:27:36;99580.19;;;3.38;94.50
75298;BME280;63896;45.990;18.688;2023-02-25T18:30:40;99585.75;;;3.28;95.41
75298;BME280;63896;45.990;18.688;2023-02-25T18:33:44;99570.81;;;3.28;95.82
75298;BME280;63896;45.990;18.688;2023-02-25T18:36:48;99582.94;;;3.29;95.19
75298;BME280;63896;45.990;18.688;2023-02-25T18:39:51;99592.16;;;3.25;96.39
75298;BME280;63896;45.990;18.688;2023-02-25T18:42:55;99581.91;;;3.24;96.25
75298;BME280;63896;45.990;18.688;2023-02-25T18:45:58;99570.16;;;3.20;96.04
75298;BME280;63896;45.990;18.688;2023-02-25T18:49:01;99578.69;;;3.28;95.40
75298;BME280;63896;45.990;18.688;2023-02-25T18:52:05;99572.66;;;3.28;95.17
75298;BME280;63896;45.990;18.688;2023-02-25T18:55:22;99564.59;;;3.29;94.88
75298;BME280;63896;45.990;18.688;2023-02-25T18:58:25;99567.78;;;3.25;96.60
75298;BME280;63896;45.990;18.688;2023-02-25T19:01:31;99577.00;;;3.21;96.94
75298;BME280;63896;45.990;18.688;2023-02-25T19:04:35;99591.47;;;3.17;96.57
75298;BME280;63896;45.990;18.688;2023-02-25T19:07:38;99588.69;;;3.18;96.74
75298;BME280;63896;45.990;18.688;2023-02-25T19:10:42;99588.06;;;3.16;96.71
75298;BME280;63896;45.990;18.688;2023-02-25T19:13:45;99583.44;;;3.18;96.50
75298;BME280;63896;45.990;18.688;2023-02-25T19:16:49;99596.97;;;3.22;96.65
75298;BME280;63896;45.990;18.688;2023-02-25T19:19:52;99603.59;;;3.18;97.45
75298;BME280;63896;45.990;18.688;2023-02-25T19:22:59;99613.34;;;3.24;97.05
75298;BME280;63896;45.990;18.688;2023-02-25T19:26:04;99623.84;;;3.24;96.69
75298;BME280;63896;45.990;18.688;2023-02-25T19:29:08;99630.06;;;3.23;97.31
75298;BME280;63896;45.990;18.688;2023-02-25T19:32:12;99631.44;;;3.40;97.03
75298;BME280;63896;45.990;18.688;2023-02-25T19:35:16;99635.38;;;3.29;97.20
75298;BME280;63896;45.990;18.688;2023-02-25T19:38:19;99661.19;;;3.32;97.03
75298;BME280;63896;45.990;18.688;2023-02-25T19:41:23;99657.22;;;3.36;97.37
75298;BME280;63896;45.990;18.688;2023-02-25T19:44:27;99659.72;;;3.45;97.36
75298;BME280;63896;45.990;18.688;2023-02-25T19:47:30;99669.28;;;3.52;96.82
75298;BME280;63896;45.990;18.688;2023-02-25T19:50:35;99663.91;;;3.60;96.39
75298;BME280;63896;45.990;18.688;2023-02-25T19:53:38;99660.63;;;3.73;95.27
75298;BME280;63896;45.990;18.688;2023-02-25T19:56:42;99666.66;;;3.52;96.28
75298;BME280;63896;45.990;18.688;2023-02-25T19:59:46;99675.44;;;3.45;97.10
75298;BME280;63896;45.990;18.688;2023-02-25T20:02:50;99670.66;;;3.48;97.44
75298;BME280;63896;45.990;18.688;2023-02-25T20:05:54;99672.78;;;3.59;97.31
75298;BME280;63896;45.990;18.688;2023-02-25T20:09:03;99678.03;;;3.80;94.98
75298;BME280;63896;45.990;18.688;2023-02-25T20:12:07;99675.09;;;3.90;94.14